Time;durP1;ratioP1;P1;durP2;ratioP2;P2;SDS_P1;SDS_P2;PMS_P1;PMS_P2;Temp;Humidity;BMP_temperature;BMP_pressure;BME280_temperature;BME280_humidity;BME280_pressure;Samples;Min_cycle;Max_cycle;Signal;HPM_P1;HPM_P2
2023/10/12 00:02:04;;;;;;;12.10;8.60;;;;;;;16.83;86.29;101008.78;5040995;28;20025;-71
2023/10/12 00:07:42;;;;;;;15.52;9.05;;;;;;;16.81;87.36;101008.91;5037239;28;20479;-71
2023/10/12 00:12:46;;;;;;;15.30;9.43;;;;;;;16.65;89.15;101017.19;5043581;28;19920;-72
2023/10/12 00:15:25;;;;;;;13.15;9.60;;;;;;;16.56;90.08;101014.34;5040664;28;20025;-70
2023/10/12 00:18:10;;;;;;;18.63;10.40;;;;;;;16.54;90.50;101018.94;5047985;28;20026;-71
2023/10/12 00:20:39;;;;;;;14.23;10.48;;;;;;;16.50;91.42;101018.31;5041425;28;20476;-71
2023/10/12 00:23:15;;;;;;;19.33;10.75;;;;;;;16.48;92.28;101022.94;5043131;28;20108;-71
2023/10/12 00:25:54;;;;;;;15.77;10.52;;;;;;;16.44;93.24;101041.13;5045336;28;20029;-71
2023/10/12 00:28:22;;;;;;;14.85;10.85;;;;;;;16.41;93.81;101029.72;5040489;28;20021;-70
2023/10/12 00:30:54;;;;;;;14.48;10.73;;;;;;;16.40;94.23;101036.09;5046343;28;20040;-71
2023/10/12 00:33:21;;;;;;;15.73;11.95;;;;;;;16.42;94.71;101037.66;5045504;28;20045;-71
2023/10/12 00:36:00;;;;;;;16.05;12.10;;;;;;;16.43;95.52;101035.88;5045318;28;20055;-72
2023/10/12 00:38:29;;;;;;;18.10;12.07;;;;;;;16.39;96.92;101035.22;5044824;28;20025;-71
2023/10/12 00:41:17;;;;;;;17.40;12.25;;;;;;;16.26;98.81;101057.69;5048075;28;20048;-70
2023/10/12 00:46:48;;;;;;;19.67;14.38;;;;;;;15.92;100.00;101049.31;5046687;28;20114;-71
2023/10/12 00:49:17;;;;;;;21.88;15.88;;;;;;;15.85;100.00;101065.03;5069691;28;20033;-71
2023/10/12 00:51:52;;;;;;;19.35;14.43;;;;;;;15.82;100.00;101083.16;5046150;28;20036;-74
2023/10/12 00:55:21;;;;;;;22.40;15.82;;;;;;;15.80;100.00;101077.91;5053561;28;20025;-72
2023/10/12 00:57:11;;;;;;;22.65;15.80;;;;;;;15.73;100.00;101073.91;5040302;28;20048;-70
2023/10/12 00:59:38;;;;;;;23.52;16.67;;;;;;;15.64;100.00;101077.19;5040571;28;20035;-71
2023/10/12 01:02:08;;;;;;;22.00;16.35;;;;;;;15.51;100.00;101076.28;5044351;28;20017;-71
2023/10/12 01:04:41;;;;;;;24.55;17.85;;;;;;;15.41;100.00;101076.91;5045662;28;20057;-71
2023/10/12 01:07:18;;;;;;;24.25;18.25;;;;;;;15.33;100.00;101073.88;5038695;28;20033;-70
2023/10/12 01:09:45;;;;;;;25.08;19.02;;;;;;;15.27;100.00;101071.63;5044454;28;20033;-70
2023/10/12 01:12:14;;;;;;;24.73;19.02;;;;;;;15.21;100.00;101074.72;5030385;28;20063;-71
2023/10/12 01:14:43;;;;;;;26.08;19.88;;;;;;;15.15;100.00;101080.50;5039259;28;20550;-70
2023/10/12 01:17:35;;;;;;;30.45;21.23;;;;;;;15.10;100.00;101082.63;5044506;28;20063;-71
2023/10/12 01:20:12;;;;;;;27.35;20.55;;;;;;;15.05;100.00;101085.63;5043275;28;20036;-71
2023/10/12 01:22:41;;;;;;;27.83;21.70;;;;;;;15.01;100.00;101077.88;5040792;28;20036;-69
2023/10/12 01:25:28;;;;;;;26.95;21.80;;;;;;;14.95;100.00;101088.00;5046930;28;20040;-70
2023/10/12 01:27:54;;;;;;;33.70;23.10;;;;;;;14.92;100.00;101087.34;5043130;28;20021;-70
2023/10/12 01:30:22;;;;;;;28.63;23.15;;;;;;;14.88;100.00;101084.03;5041771;28;20036;-70
2023/10/12 01:32:57;;;;;;;29.70;22.75;;;;;;;14.83;100.00;101067.38;5041727;28;20025;-69
2023/10/12 01:35:27;;;;;;;30.42;23.17;;;;;;;14.83;100.00;101059.31;5044999;28;20106;-70
2023/10/12 01:38:00;;;;;;;28.25;24.05;;;;;;;14.81;100.00;101061.25;5043475;28;20129;-70
2023/10/12 01:40:43;;;;;;;31.55;23.42;;;;;;;14.81;100.00;101063.09;5043324;28;20039;-70
2023/10/12 01:43:12;;;;;;;28.98;23.48;;;;;;;14.78;100.00;101058.78;5037637;28;20128;-70
2023/10/12 01:45:41;;;;;;;33.22;24.23;;;;;;;14.69;100.00;101048.66;5042582;28;20021;-70
2023/10/12 01:48:10;;;;;;;27.45;23.13;;;;;;;14.67;100.00;101064.84;5041350;28;20064;-69
2023/10/12 01:50:39;;;;;;;29.05;24.15;;;;;;;14.67;100.00;101047.88;5041646;28;20025;-70
2023/10/12 01:53:23;;;;;;;31.65;23.60;;;;;;;14.67;100.00;101047.88;5042342;28;20025;-70
2023/10/12 01:55:52;;;;;;;27.38;22.15;;;;;;;14.60;100.00;101057.31;5043344;28;20090;-69
2023/10/12 01:58:19;;;;;;;26.23;21.55;;;;;;;14.54;100.00;101058.53;5044754;28;20035;-71
2023/10/12 02:00:51;;;;;;;28.55;21.15;;;;;;;14.43;100.00;101055.66;5073182;28;20233;-71
2023/10/12 02:03:21;;;;;;;28.45;21.65;;;;;;;14.45;100.00;101069.81;5039709;28;20032;-69
2023/10/12 02:05:58;;;;;;;30.00;21.48;;;;;;;14.40;100.00;101056.72;5040514;28;20041;-69
2023/10/12 02:08:32;;;;;;;27.85;21.23;;;;;;;14.42;100.00;101054.81;5040441;28;20167;-68
2023/10/12 02:11:10;;;;;;;29.35;23.05;;;;;;;14.36;100.00;101057.88;5039200;28;20029;-69
2023/10/12 02:13:36;;;;;;;28.85;22.67;;;;;;;14.35;100.00;101053.47;5040067;28;20021;-71
2023/10/12 02:16:12;;;;;;;28.45;23.10;;;;;;;14.33;100.00;101060.72;5036803;28;20039;-70
2023/10/12 02:18:39;;;;;;;30.20;23.98;;;;;;;14.28;100.00;101062.84;5042780;28;20055;-70
2023/10/12 02:21:09;;;;;;;30.00;24.92;;;;;;;14.29;100.00;101052.97;5035684;28;20033;-71
2023/10/12 02:23:39;;;;;;;33.90;25.70;;;;;;;14.29;100.00;101064.56;5040907;28;20082;-70
2023/10/12 02:26:10;;;;;;;32.35;25.02;;;;;;;14.28;100.00;101057.47;5039432;28;20033;-70
2023/10/12 02:28:38;;;;;;;35.65;26.30;;;;;;;14.28;100.00;101045.91;5043767;28;20081;-70
2023/10/12 02:31:05;;;;;;;41.50;28.80;;;;;;;14.30;100.00;101030.63;5038063;28;20052;-69
2023/10/12 02:33:37;;;;;;;38.30;27.15;;;;;;;14.29;100.00;101020.84;5040286;28;20032;-71
2023/10/12 02:36:06;;;;;;;39.40;28.98;;;;;;;14.29;100.00;101015.50;5041547;28;20467;-70
2023/10/12 02:38:34;;;;;;;40.67;27.02;;;;;;;14.28;100.00;101022.69;5039227;28;20505;-69
2023/10/12 02:40:59;;;;;;;36.28;27.58;;;;;;;14.26;100.00;101038.00;5040243;28;20037;-70
2023/10/12 02:43:28;;;;;;;37.60;28.08;;;;;;;14.30;100.00;101042.19;5039726;28;20091;-71
2023/10/12 02:46:01;;;;;;;36.20;26.40;;;;;;;14.24;100.00;101034.53;5041576;28;20033;-70
2023/10/12 02:48:29;;;;;;;35.03;26.43;;;;;;;14.23;100.00;101015.91;5039824;28;20051;-69
2023/10/12 02:50:58;;;;;;;35.83;26.98;;;;;;;14.24;100.00;100998.88;5036241;28;20306;-70
2023/10/12 02:53:30;;;;;;;38.53;27.17;;;;;;;14.26;100.00;100999.66;5039674;28;20461;-70
2023/10/12 02:55:58;;;;;;;38.90;26.30;;;;;;;14.19;100.00;101004.53;5041369;28;20911;-70
2023/10/12 02:58:24;;;;;;;37.33;26.65;;;;;;;14.24;100.00;101013.13;5041437;28;20471;-71
2023/10/12 03:00:56;;;;;;;36.22;26.02;;;;;;;14.27;100.00;101020.97;5042723;28;20033;-69
2023/10/12 03:03:26;;;;;;;37.80;26.45;;;;;;;14.24;100.00;101018.47;5042170;28;20100;-68
2023/10/12 03:05:54;;;;;;;31.08;24.52;;;;;;;14.23;100.00;101019.44;5024515;28;20041;-68
2023/10/12 03:08:21;;;;;;;35.70;25.65;;;;;;;14.18;100.00;101019.72;5040864;28;20533;-70
2023/10/12 03:11:08;;;;;;;34.88;25.67;;;;;;;14.18;100.00;101024.22;5024813;28;20037;-69
2023/10/12 03:13:40;;;;;;;38.05;25.23;;;;;;;14.17;100.00;101034.09;5036730;28;20494;-75
2023/10/12 03:16:15;;;;;;;32.55;24.80;;;;;;;14.14;100.00;101028.06;5041469;28;20108;-70
2023/10/12 03:18:42;;;;;;;36.88;25.88;;;;;;;14.14;100.00;101034.25;5037060;28;20108;-69
2023/10/12 03:21:14;;;;;;;36.45;25.17;;;;;;;14.08;100.00;101025.75;5040502;28;20025;-69
2023/10/12 03:23:46;;;;;;;36.05;24.02;;;;;;;14.10;100.00;101018.50;5037297;28;20491;-70
2023/10/12 03:26:24;;;;;;;37.08;24.83;;;;;;;14.12;100.00;101019.25;5030952;28;20517;-69
2023/10/12 03:28:53;;;;;;;32.45;23.63;;;;;;;14.13;100.00;101029.03;5041196;28;20033;-70
2023/10/12 03:31:23;;;;;;;32.13;22.70;;;;;;;14.04;100.00;101013.50;5042592;28;20581;-70
2023/10/12 03:33:55;;;;;;;30.30;23.08;;;;;;;14.03;100.00;101009.13;5043613;28;20021;-71
2023/10/12 03:36:33;;;;;;;34.03;23.85;;;;;;;14.01;100.00;101001.19;5038348;28;20483;-71
2023/10/12 03:44:18;;;;;;;35.45;24.88;;;;;;;13.98;100.00;100997.84;5037515;28;20068;-70
2023/10/12 03:46:46;;;;;;;32.75;24.17;;;;;;;13.93;100.00;100992.78;5041380;28;20033;-71
2023/10/12 03:49:31;;;;;;;36.35;25.20;;;;;;;13.95;100.00;101010.44;5038089;28;20041;-71
2023/10/12 03:52:02;;;;;;;32.03;24.00;;;;;;;13.95;100.00;101015.81;5041853;28;20132;-71
2023/10/12 03:54:32;;;;;;;34.97;25.58;;;;;;;13.95;100.00;101015.81;5041662;28;20075;-69
2023/10/12 03:57:06;;;;;;;35.95;25.17;;;;;;;13.94;100.00;101021.25;5043352;28;20033;-70
2023/10/12 03:59:44;;;;;;;35.67;25.15;;;;;;;13.90;100.00;101033.97;5039464;28;20108;-69
2023/10/12 04:02:15;;;;;;;33.13;24.33;;;;;;;13.93;100.00;101033.78;5028500;28;20029;-70
2023/10/12 04:05:01;;;;;;;41.15;26.27;;;;;;;13.94;100.00;101016.78;5037828;28;20037;-70
2023/10/12 04:07:39;;;;;;;39.40;26.50;;;;;;;13.98;100.00;101016.59;5037438;28;20075;-68
2023/10/12 04:10:23;;;;;;;34.42;25.50;;;;;;;13.95;100.00;101039.03;5041071;28;20036;-70
2023/10/12 04:13:02;;;;;;;35.90;25.67;;;;;;;13.94;100.00;101043.53;5042634;28;20191;-70
2023/10/12 04:15:34;;;;;;;34.17;25.30;;;;;;;13.95;100.00;101044.38;5039584;28;20036;-70
2023/10/12 04:17:59;;;;;;;42.15;25.80;;;;;;;13.95;100.00;101050.59;5040241;28;20052;-69
2023/10/12 04:20:27;;;;;;;35.50;25.73;;;;;;;13.94;100.00;101045.34;5044094;28;20115;-71
2023/10/12 04:28:17;;;;;;;38.05;25.77;;;;;;;13.95;100.00;101060.44;5039802;28;20049;-70
2023/10/12 04:33:24;;;;;;;39.85;27.08;;;;;;;13.94;100.00;101046.19;5046195;28;20036;-70
2023/10/12 04:43:36;;;;;;;34.33;25.33;;;;;;;13.94;100.00;101043.53;5038952;28;20115;-70
2023/10/12 04:48:43;;;;;;;36.92;25.40;;;;;;;13.99;100.00;101047.72;5042269;28;20194;-71
2023/10/12 04:51:18;;;;;;;34.45;26.15;;;;;;;13.97;100.00;101052.34;5043896;28;20143;-70
2023/10/12 04:54:16;;;;;;;35.83;24.98;;;;;;;13.99;100.00;101055.75;5042310;28;20033;-70
2023/10/12 04:56:52;;;;;;;34.17;24.15;;;;;;;13.98;100.00;101054.06;5038130;28;20033;-70
2023/10/12 04:59:26;;;;;;;33.88;23.48;;;;;;;13.96;100.00;101054.13;5040638;28;20021;-68
2023/10/12 05:09:48;;;;;;;34.28;24.60;;;;;;;14.01;100.00;101061.91;5042204;28;20029;-69
2023/10/12 05:12:14;;;;;;;36.17;26.33;;;;;;;14.00;100.00;101065.50;5039941;28;20025;-69
2023/10/12 05:14:40;;;;;;;34.92;24.90;;;;;;;13.99;100.00;101074.50;5042063;28;20116;-68
2023/10/12 05:17:08;;;;;;;32.33;25.45;;;;;;;13.98;100.00;101073.63;5042700;28;20033;-69
2023/10/12 05:19:33;;;;;;;37.22;25.52;;;;;;;13.99;100.00;101085.19;5044825;28;20104;-69
2023/10/12 05:21:59;;;;;;;37.58;25.42;;;;;;;14.01;100.00;101089.53;5041774;28;20499;-69
2023/10/12 05:24:24;;;;;;;34.28;25.08;;;;;;;13.97;100.00;101085.31;5041193;28;20033;-68
2023/10/12 05:26:56;;;;;;;33.00;23.83;;;;;;;14.00;100.00;101086.91;5037575;28;20074;-69
2023/10/12 05:32:05;;;;;;;34.03;23.83;;;;;;;13.99;100.00;101085.19;5040439;28;20163;-67
2023/10/12 05:37:24;;;;;;;34.40;23.70;;;;;;;14.02;100.00;101090.38;5042052;28;20063;-68
2023/10/12 05:39:56;;;;;;;33.13;23.25;;;;;;;13.99;100.00;101090.56;5033583;28;20146;-69
2023/10/12 05:42:25;;;;;;;30.38;23.42;;;;;;;13.99;100.00;101079.84;5037852;28;20041;-69
2023/10/12 05:44:52;;;;;;;31.65;22.83;;;;;;;13.93;100.00;101071.25;5035729;28;20379;-68
2023/10/12 05:47:18;;;;;;;33.58;22.92;;;;;;;13.98;100.00;101076.31;5042216;28;20266;-69
2023/10/12 05:49:50;;;;;;;31.63;23.13;;;;;;;13.93;100.00;101081.94;5040038;28;20033;-69
2023/10/12 05:52:17;;;;;;;33.55;22.55;;;;;;;13.99;100.00;101090.56;5033362;28;20439;-69
2023/10/12 05:54:43;;;;;;;30.20;22.00;;;;;;;13.94;100.00;101107.75;5037201;28;20029;-69
2023/10/12 05:57:25;;;;;;;33.15;23.20;;;;;;;13.91;100.00;101101.72;5037714;28;20078;-69
2023/10/12 05:59:50;;;;;;;28.40;21.38;;;;;;;13.93;100.00;101115.88;5035426;28;20116;-69
2023/10/12 06:02:18;;;;;;;28.15;21.52;;;;;;;13.93;100.00;101111.38;5039441;28;20112;-69
2023/10/12 06:04:44;;;;;;;32.20;22.70;;;;;;;13.94;100.00;101123.81;5038276;28;20029;-70
2023/10/12 06:07:11;;;;;;;29.05;21.10;;;;;;;13.93;100.00;101116.75;5049197;28;20077;-70
2023/10/12 06:09:37;;;;;;;28.48;20.92;;;;;;;13.90;100.00;101114.25;5036410;28;20025;-68
2023/10/12 06:12:07;;;;;;;29.13;21.35;;;;;;;13.92;100.00;101117.69;5037956;28;20067;-68
2023/10/12 06:14:38;;;;;;;28.55;21.63;;;;;;;13.94;100.00;101122.94;5033909;28;20025;-69
2023/10/12 06:17:27;;;;;;;28.98;20.45;;;;;;;13.97;100.00;101122.78;5032762;28;20048;-68
2023/10/12 06:19:54;;;;;;;29.77;21.00;;;;;;;13.98;100.00;101115.59;5041914;28;20028;-69
2023/10/12 06:22:21;;;;;;;25.10;18.90;;;;;;;13.93;100.00;101119.41;5039628;28;20032;-69
2023/10/12 06:24:52;;;;;;;27.13;19.60;;;;;;;13.95;100.00;101122.84;5043344;28;20020;-69
2023/10/12 06:29:51;;;;;;;26.33;18.50;;;;;;;13.93;100.00;101130.13;5037622;28;20036;-69
2023/10/12 06:32:18;;;;;;;26.13;18.45;;;;;;;13.88;100.00;101118.84;5041656;28;20025;-68
2023/10/12 06:34:45;;;;;;;24.75;19.17;;;;;;;13.84;100.00;101119.13;5036342;28;20355;-69
2023/10/12 06:42:45;;;;;;;22.60;17.27;;;;;;;13.87;100.00;101129.63;5034185;28;20486;-67
2023/10/12 06:45:15;;;;;;;22.65;18.20;;;;;;;13.85;100.00;101137.75;5039355;28;20025;-69
2023/10/12 06:47:41;;;;;;;24.52;18.08;;;;;;;13.87;100.00;101129.63;5030745;28;20564;-69
2023/10/12 06:50:17;;;;;;;25.25;18.17;;;;;;;13.87;100.00;101137.63;5030875;28;20024;-69
2023/10/12 06:52:43;;;;;;;26.92;18.92;;;;;;;13.90;100.00;101137.47;5031505;28;20040;-70
2023/10/12 06:55:20;;;;;;;26.73;18.45;;;;;;;13.89;100.00;101154.47;5033915;28;20290;-69
2023/10/12 06:57:52;;;;;;;28.15;19.38;;;;;;;13.94;100.00;101147.03;5036848;28;20491;-69
2023/10/12 07:00:29;;;;;;;25.95;19.30;;;;;;;13.94;100.00;101157.72;5037167;28;20057;-69
2023/10/12 07:02:54;;;;;;;25.98;19.08;;;;;;;13.94;100.00;101158.59;5031039;28;20317;-68
2023/10/12 07:05:28;;;;;;;22.25;17.92;;;;;;;13.93;100.00;101162.22;5030867;28;20085;-69
2023/10/12 07:07:53;;;;;;;25.25;18.77;;;;;;;13.91;100.00;101160.59;5036948;28;20033;-69
2023/10/12 07:10:28;;;;;;;30.17;18.92;;;;;;;13.92;100.00;101171.22;5038731;28;20090;-69
2023/10/12 07:12:57;;;;;;;23.00;17.20;;;;;;;13.93;100.00;101164.91;5035034;28;20025;-69
2023/10/12 07:15:26;;;;;;;27.17;18.48;;;;;;;13.97;100.00;101167.41;5032674;28;20212;-71
2023/10/12 07:17:53;;;;;;;23.40;18.42;;;;;;;13.99;100.00;101166.34;5034998;28;20059;-71
2023/10/12 07:20:40;;;;;;;24.98;18.95;;;;;;;13.95;100.00;101170.16;5034532;28;20032;-71
2023/10/12 07:23:16;;;;;;;23.77;17.05;;;;;;;13.94;100.00;101168.44;5036205;28;20029;-69
2023/10/12 07:25:51;;;;;;;22.48;18.08;;;;;;;13.97;100.00;101178.13;5039212;28;20036;-71
2023/10/12 07:28:32;;;;;;;26.13;18.95;;;;;;;13.96;100.00;101179.91;5034047;28;20024;-71
2023/10/12 07:36:35;;;;;;;23.85;18.50;;;;;;;13.97;100.00;101181.66;5030907;28;20132;-70
2023/10/12 07:41:54;;;;;;;26.60;18.35;;;;;;;14.00;100.00;101192.16;5034961;28;20087;-72
2023/10/12 07:44:21;;;;;;;25.75;18.40;;;;;;;14.03;100.00;101200.00;5037481;28;20037;-71
2023/10/12 07:46:46;;;;;;;24.63;18.65;;;;;;;14.01;100.00;101193.91;5035414;28;20048;-69
2023/10/12 07:49:57;;;;;;;25.20;19.02;;;;;;;14.04;100.00;101190.16;5041094;28;20028;-68
2023/10/12 07:52:09;;;;;;;27.33;18.80;;;;;;;14.09;100.00;101190.75;5034622;28;20242;-68
2023/10/12 07:57:19;;;;;;;25.98;19.27;;;;;;;14.17;100.00;101184.00;5036666;28;20575;-72
2023/10/12 08:13:25;;;;;;;24.50;18.55;;;;;;;14.26;100.00;101192.41;5035762;28;20037;-70
2023/10/12 08:24:09;;;;;;;24.08;17.08;;;;;;;14.37;100.00;101184.56;5037285;28;20747;-71
2023/10/12 08:39:38;;;;;;;28.25;21.98;;;;;;;14.64;100.00;101192.78;5036788;28;20040;-72
2023/10/12 08:44:53;;;;;;;32.38;24.33;;;;;;;14.83;100.00;101185.28;5037583;28;20111;-70
2023/10/12 08:47:26;;;;;;;31.27;23.63;;;;;;;14.93;100.00;101190.94;5042193;28;20128;-72
2023/10/12 08:50:01;;;;;;;28.33;22.40;;;;;;;14.91;100.00;101188.34;5039188;28;20450;-72
2023/10/12 08:52:28;;;;;;;30.70;22.48;;;;;;;15.12;100.00;101198.66;5041777;28;20376;-71
2023/10/12 08:54:58;;;;;;;27.98;22.27;;;;;;;15.24;100.00;101195.19;5038419;28;20268;-71
2023/10/12 08:57:38;;;;;;;27.45;20.65;;;;;;;15.24;100.00;101197.00;5042507;28;20187;-71
2023/10/12 09:00:25;;;;;;;24.65;20.50;;;;;;;15.26;100.00;101206.69;5041186;28;20032;-71
2023/10/12 09:03:03;;;;;;;27.73;19.73;;;;;;;15.15;100.00;101217.22;5041248;28;20094;-72
2023/10/12 09:05:30;;;;;;;24.23;18.45;;;;;;;15.08;100.00;101214.06;5036742;28;20037;-72
2023/10/12 09:11:02;;;;;;;27.65;19.85;;;;;;;15.14;100.00;101192.25;5040975;28;20395;-71
2023/10/12 09:13:30;;;;;;;22.60;18.92;;;;;;;15.24;100.00;101203.22;5036196;28;20036;-72
2023/10/12 09:15:59;;;;;;;24.27;18.42;;;;;;;15.23;100.00;101209.56;5071707;28;20029;-71
2023/10/12 09:18:33;;;;;;;20.38;17.23;;;;;;;15.28;100.00;101207.44;5043186;28;20086;-71
2023/10/12 09:26:15;;;;;;;22.75;16.88;;;;;;;15.29;100.00;101203.78;5039596;28;20068;-72
2023/10/12 09:31:22;;;;;;;22.55;17.10;;;;;;;15.29;100.00;101227.91;5035167;28;20033;-72
2023/10/12 09:34:12;;;;;;;20.35;16.65;;;;;;;15.25;100.00;101210.31;5033616;28;20031;-72
2023/10/12 09:36:43;;;;;;;22.88;17.45;;;;;;;15.26;100.00;101208.47;5042494;28;20032;-72
2023/10/12 09:39:14;;;;;;;20.58;17.20;;;;;;;15.34;100.00;101199.00;5040522;28;20037;-70
2023/10/12 09:41:41;;;;;;;20.00;17.27;;;;;;;15.41;100.00;101196.75;5034506;28;20045;-72
2023/10/12 09:44:11;;;;;;;22.05;17.23;;;;;;;15.51;100.00;101205.06;5042026;28;20053;-72
2023/10/12 09:46:46;;;;;;;24.45;17.02;;;;;;;15.47;100.00;101209.78;5040097;28;20298;-72
2023/10/12 09:49:21;;;;;;;21.00;16.58;;;;;;;15.46;100.00;101197.31;5039239;28;20027;-71
2023/10/12 09:51:50;;;;;;;23.20;18.08;;;;;;;15.51;100.00;101205.94;5041970;28;20035;-73
2023/10/12 09:54:27;;;;;;;20.13;16.02;;;;;;;15.49;100.00;101201.63;5039859;28;20056;-71
2023/10/12 09:56:58;;;;;;;21.38;15.52;;;;;;;15.40;100.00;101192.38;5037703;28;20518;-71
2023/10/12 09:59:32;;;;;;;24.35;16.92;;;;;;;15.45;100.00;101196.47;5044173;28;20040;-71
2023/10/12 10:04:45;;;;;;;22.92;16.70;;;;;;;15.58;100.00;101190.28;5034131;28;20067;-71
2023/10/12 10:07:27;;;;;;;21.50;15.45;;;;;;;15.56;100.00;101197.59;5033508;28;20025;-72
2023/10/12 10:09:59;;;;;;;18.25;14.63;;;;;;;15.49;100.00;101193.59;5041773;28;20033;-71
2023/10/12 10:12:28;;;;;;;18.40;14.40;;;;;;;15.53;100.00;101200.47;5030890;28;20218;-71
2023/10/12 10:15:10;;;;;;;18.90;14.68;;;;;;;15.52;100.00;101194.25;5039877;28;20029;-71
2023/10/12 10:17:36;;;;;;;17.92;13.18;;;;;;;15.47;100.00;101193.69;5036234;28;20032;-72
2023/10/12 10:22:56;;;;;;;18.33;13.82;;;;;;;15.55;100.00;101194.06;5039942;28;20504;-72
2023/10/12 10:25:46;;;;;;;;;;;;;;;15.63;100.00;101191.72;5040537;28;20028;-72
2023/10/12 10:28:23;;;;;;;18.27;13.80;;;;;;;15.49;100.00;101185.53;5033168;28;21509;-71
2023/10/12 10:30:50;;;;;;;19.52;13.77;;;;;;;15.49;100.00;101177.50;5032152;28;20020;-70
2023/10/12 10:33:22;;;;;;;16.45;13.65;;;;;;;15.55;100.00;101177.06;5038483;28;20036;-72
2023/10/12 10:36:13;;;;;;;18.45;14.38;;;;;;;15.57;100.00;101181.38;5038005;28;20025;-71
2023/10/12 10:38:53;;;;;;;16.05;13.32;;;;;;;15.54;100.00;101186.09;5039835;28;20029;-71
2023/10/12 10:44:15;;;;;;;15.93;12.68;;;;;;;15.68;100.00;101169.97;5039655;28;20814;-72
2023/10/12 10:46:46;;;;;;;16.77;13.52;;;;;;;15.84;100.00;101181.41;5035956;28;20142;-70
2023/10/12 10:49:19;;;;;;;15.90;12.90;;;;;;;15.97;100.00;101173.38;5040092;28;20082;-70
2023/10/12 10:51:48;;;;;;;;;;;;;;;16.09;100.00;101164.50;5035508;28;20386;-71
2023/10/12 10:54:18;;;;;;;17.90;14.02;;;;;;;16.25;100.00;101156.19;5038211;28;19924;-72
2023/10/12 10:56:48;;;;;;;18.70;14.00;;;;;;;16.36;100.00;101152.78;5035403;28;20032;-70
2023/10/12 10:59:17;;;;;;;15.90;13.13;;;;;;;16.40;100.00;101152.44;5039803;28;20134;-71
2023/10/12 11:01:49;;;;;;;15.57;12.93;;;;;;;16.44;100.00;101153.97;5037830;28;20035;-71
2023/10/12 11:07:11;;;;;;;15.60;12.10;;;;;;;16.69;100.00;101174.56;5032869;28;20040;-70
2023/10/12 11:12:20;;;;;;;18.23;12.20;;;;;;;16.98;100.00;101166.28;5030851;28;20044;-71
2023/10/12 11:14:52;;;;;;;15.27;11.52;;;;;;;17.03;100.00;101161.44;5035850;28;20061;-72
2023/10/12 11:17:21;;;;;;;16.05;11.93;;;;;;;17.12;100.00;101159.88;5035624;28;20033;-71
2023/10/12 11:19:49;;;;;;;14.68;11.13;;;;;;;17.23;100.00;101156.44;5036890;28;20063;-70
2023/10/12 11:22:15;;;;;;;16.58;10.00;;;;;;;17.22;100.00;101150.16;5037557;28;20074;-72
2023/10/12 11:24:48;;;;;;;15.25;10.48;;;;;;;17.22;100.00;101144.78;5037086;28;20079;-70
2023/10/12 11:27:32;;;;;;;13.60;10.00;;;;;;;17.27;100.00;101150.69;5040038;28;20037;-70
2023/10/12 11:30:00;;;;;;;13.63;9.88;;;;;;;17.22;100.00;101150.16;5040466;28;20028;-71
2023/10/12 11:32:28;;;;;;;15.43;10.55;;;;;;;17.14;100.00;101160.66;5071502;28;20503;-70
2023/10/12 11:34:59;;;;;;;13.40;9.60;;;;;;;17.06;100.00;101160.34;5041580;28;20540;-70
2023/10/12 11:37:28;;;;;;;15.48;8.82;;;;;;;17.06;100.00;101157.66;5044641;28;20517;-71
2023/10/12 11:39:54;;;;;;;13.13;9.00;;;;;;;16.97;100.00;101153.81;5071521;28;20471;-71
2023/10/12 11:42:20;;;;;;;10.60;8.73;;;;;;;16.85;100.00;101152.88;5042451;28;20080;-71
2023/10/12 11:44:47;;;;;;;13.27;8.95;;;;;;;16.73;100.00;101153.75;5036805;28;20568;-71
2023/10/12 11:47:27;;;;;;;10.65;8.95;;;;;;;16.76;100.00;101166.09;5043636;28;20083;-71
2023/10/12 11:49:55;;;;;;;13.32;8.70;;;;;;;16.71;100.00;101160.16;5044975;28;20040;-72
2023/10/12 11:52:33;;;;;;;12.70;8.63;;;;;;;16.70;100.00;101153.94;5042808;28;20021;-71
2023/10/12 11:55:31;;;;;;;11.90;8.07;;;;;;;16.74;100.00;101147.41;5035733;28;20040;-72
2023/10/12 11:57:59;;;;;;;9.90;8.30;;;;;;;16.74;100.00;101139.34;5055231;28;20479;-72
2023/10/12 12:00:29;;;;;;;14.52;8.85;;;;;;;16.78;100.00;101135.47;5035476;28;20029;-72
2023/10/12 12:02:59;;;;;;;11.68;8.38;;;;;;;16.89;100.00;101138.25;5041938;28;20075;-71
2023/10/12 12:05:29;;;;;;;10.95;8.13;;;;;;;16.88;100.00;101143.72;5041487;28;20029;-70
2023/10/12 12:07:56;;;;;;;12.15;8.85;;;;;;;16.82;100.00;101142.34;5042095;28;20044;-71
2023/10/12 12:13:08;;;;;;;10.77;8.32;;;;;;;16.62;100.00;101132.13;5044820;28;20243;-71
2023/10/12 12:15:35;;;;;;;13.43;9.30;;;;;;;16.56;100.00;101146.00;5036186;28;20025;-70
2023/10/12 12:18:04;;;;;;;11.48;8.48;;;;;;;16.50;100.00;101124.94;5041902;28;21036;-72
2023/10/12 12:20:38;;;;;;;11.85;9.23;;;;;;;16.54;100.00;101134.50;5040878;28;20033;-72
2023/10/12 12:23:10;;;;;;;12.70;9.52;;;;;;;16.51;100.00;101138.28;5041263;28;20029;-71
2023/10/12 12:25:38;;;;;;;11.88;8.95;;;;;;;16.50;100.00;101130.31;5046504;28;20170;-71
2023/10/12 12:28:13;;;;;;;13.07;9.45;;;;;;;16.47;100.00;101122.44;5042446;28;20174;-71
2023/10/12 12:30:55;;;;;;;14.85;9.05;;;;;;;16.47;100.00;101115.28;5039306;28;20064;-70
2023/10/12 12:33:22;;;;;;;15.05;9.30;;;;;;;16.51;100.00;101108.72;5037397;28;20090;-71
2023/10/12 12:35:54;;;;;;;12.70;9.82;;;;;;;16.52;100.00;101098.81;5041053;28;20078;-71
2023/10/12 12:41:18;;;;;;;13.65;10.70;;;;;;;16.32;100.00;101100.25;5036425;28;20041;-71
2023/10/12 12:43:46;;;;;;;16.13;11.27;;;;;;;16.06;100.00;101094.03;5041753;28;20032;-70
2023/10/12 12:46:12;;;;;;;15.80;12.07;;;;;;;15.90;100.00;101089.72;5038490;28;20421;-72
2023/10/12 12:48:38;;;;;;;16.48;11.70;;;;;;;15.85;100.00;101089.19;5035335;28;20404;-71
2023/10/12 12:51:11;;;;;;;16.27;12.25;;;;;;;15.82;100.00;101080.47;5033362;28;20082;-72
2023/10/12 12:53:37;;;;;;;;;;;;;;;15.76;100.00;101080.88;5043541;28;20060;-70
2023/10/12 12:56:02;;;;;;;16.38;12.18;;;;;;;15.76;100.00;101073.72;5043993;28;19955;-72
2023/10/12 12:58:28;;;;;;;20.38;13.23;;;;;;;15.72;100.00;101082.94;5042985;28;20271;-71
2023/10/12 13:00:54;;;;;;;20.42;13.40;;;;;;;15.67;100.00;101066.28;5040965;28;20514;-72
2023/10/12 13:03:20;;;;;;;15.63;13.18;;;;;;;15.73;100.00;101071.22;5039224;28;20033;-71
2023/10/12 13:05:46;;;;;;;16.92;12.60;;;;;;;15.84;100.00;101068.69;5041389;28;20035;-71
2023/10/12 13:08:12;;;;;;;15.98;12.70;;;;;;;15.86;100.00;101073.94;5034820;28;20108;-71
2023/10/12 13:10:38;;;;;;;18.00;12.73;;;;;;;15.94;100.00;101079.63;5042046;28;20112;-71
2023/10/12 13:13:05;;;;;;;19.02;14.60;;;;;;;16.02;100.00;101096.06;5039085;28;20060;-70
2023/10/12 13:15:41;;;;;;;14.75;12.93;;;;;;;16.08;100.00;101089.38;5041187;28;20021;-71
2023/10/12 13:18:14;;;;;;;16.98;13.13;;;;;;;16.13;100.00;101082.72;5039455;28;20028;-71
2023/10/12 13:20:40;;;;;;;16.63;13.32;;;;;;;16.16;100.00;101087.03;5045462;28;20275;-69
2023/10/12 13:23:09;;;;;;;17.70;12.93;;;;;;;16.19;100.00;101086.81;5041936;28;20722;-71
2023/10/12 13:25:36;;;;;;;15.75;11.88;;;;;;;16.17;100.00;101086.06;5041123;28;20550;-71
2023/10/12 13:28:01;;;;;;;15.73;12.77;;;;;;;16.17;100.00;101092.28;5042239;28;20039;-72
2023/10/12 13:30:26;;;;;;;12.93;11.45;;;;;;;16.28;100.00;101090.69;5037728;28;21716;-71
2023/10/12 13:32:59;;;;;;;17.33;11.90;;;;;;;16.43;100.00;101092.28;5043520;28;20039;-70
2023/10/12 13:38:22;;;;;;;13.57;11.80;;;;;;;16.66;100.00;101101.38;5021116;28;20098;-70
2023/10/12 13:40:50;;;;;;;13.52;11.32;;;;;;;16.68;100.00;101081.50;5037386;28;20320;-71